Time;durP1;ratioP1;P1;durP2;ratioP2;P2;SDS_P1;SDS_P2;PMS_P1;PMS_P2;Temp;Humidity;BMP_temperature;BMP_pressure;BME280_temperature;BME280_humidity;BME280_pressure;Samples;Min_cycle;Max_cycle;Signal;HPM_P1;HPM_P2
2023/04/03 00:00:38;;;;;;;4.78;2.53;;;18.90;95.90;;;;;;5063743;28;20024;-69
2023/04/03 00:03:04;;;;;;;4.13;2.38;;;19.00;95.90;;;;;;5062348;28;20162;-70
2023/04/03 00:05:29;;;;;;;3.30;2.70;;;19.00;95.90;;;;;;5064537;28;20041;-69
2023/04/03 00:07:55;;;;;;;2.45;2.25;;;19.00;95.90;;;;;;5060620;28;20020;-69
2023/04/03 00:10:21;;;;;;;4.55;2.45;;;19.00;95.90;;;;;;5053590;28;20067;-69
2023/04/03 00:12:46;;;;;;;3.30;2.22;;;19.00;95.90;;;;;;5051549;28;20459;-71
2023/04/03 00:15:12;;;;;;;3.72;2.40;;;18.90;96.20;;;;;;5060235;28;20028;-70
2023/04/03 00:17:38;;;;;;;5.10;2.42;;;18.90;96.20;;;;;;5052781;28;20058;-69
2023/04/03 00:20:04;;;;;;;4.90;2.60;;;18.90;95.90;;;;;;5057981;28;20032;-70
2023/04/03 00:22:30;;;;;;;3.17;2.28;;;18.90;95.90;;;;;;5064519;28;20398;-69
2023/04/03 00:24:55;;;;;;;3.58;2.10;;;18.90;95.90;;;;;;5064114;28;20032;-69
2023/04/03 00:27:21;;;;;;;4.90;2.58;;;18.90;95.90;;;;;;5060252;28;20376;-69
2023/04/03 00:29:46;;;;;;;3.92;2.30;;;18.90;95.90;;;;;;5060407;28;20592;-70
2023/04/03 00:32:12;;;;;;;2.95;2.28;;;18.90;95.90;;;;;;5058572;28;20060;-70
2023/04/03 00:34:38;;;;;;;3.00;1.95;;;18.90;95.90;;;;;;5058012;28;20032;-70
2023/04/03 00:37:03;;;;;;;2.35;2.15;;;18.90;95.90;;;;;;5058541;28;20070;-70
2023/04/03 00:39:29;;;;;;;4.57;2.35;;;18.90;95.90;;;;;;5062417;28;20074;-70
2023/04/03 00:41:54;;;;;;;5.22;2.20;;;18.90;96.00;;;;;;5062015;28;20027;-70
2023/04/03 00:44:43;;;;;;;2.83;1.98;;;18.80;95.90;;;;;;5063875;28;20082;-69
2023/04/03 00:47:11;;;;;;;2.50;1.92;;;18.90;95.90;;;;;;5061752;28;20031;-69
2023/04/03 00:49:37;;;;;;;3.10;1.95;;;18.80;95.90;;;;;;5067901;28;20028;-69
2023/04/03 00:52:02;;;;;;;3.60;2.05;;;18.80;95.90;;;;;;5038140;28;20105;-70
2023/04/03 00:54:28;;;;;;;2.22;1.80;;;18.80;95.90;;;;;;5063756;28;20052;-69
2023/04/03 00:56:54;;;;;;;2.17;1.98;;;18.80;95.90;;;;;;5061798;28;20119;-70
2023/04/03 00:59:22;;;;;;;3.50;2.15;;;18.80;95.90;;;;;;5044365;28;20031;-69
2023/04/03 01:01:48;;;;;;;2.53;1.73;;;18.80;95.90;;;;;;5053329;28;20479;-70
2023/04/03 01:04:31;;;;;;;2.55;2.22;;;18.60;95.90;;;;;;5058970;28;20043;-69
2023/04/03 01:07:20;;;;;;;4.03;1.98;;;18.80;95.90;;;;;;5060789;28;20044;-69
2023/04/03 01:09:46;;;;;;;2.05;1.80;;;18.80;96.00;;;;;;5050929;28;20518;-69
2023/04/03 01:12:19;;;;;;;2.05;1.70;;;18.80;95.90;;;;;;5046473;28;20032;-70
2023/04/03 01:14:46;;;;;;;4.43;1.83;;;18.80;95.90;;;;;;5068321;28;20394;-70
2023/04/03 01:17:27;;;;;;;2.17;1.67;;;18.80;95.90;;;;;;5066652;28;20035;-70
2023/04/03 01:20:18;;;;;;;2.92;1.80;;;18.80;96.00;;;;;;5050932;28;20032;-70
2023/04/03 01:23:02;;;;;;;2.22;1.80;;;18.70;95.90;;;;;;5046835;28;20511;-70
2023/04/03 01:25:27;;;;;;;2.22;1.90;;;18.70;95.90;;;;;;5066258;28;20031;-70
2023/04/03 01:27:53;;;;;;;2.28;1.88;;;18.70;95.90;;;;;;5065974;28;20222;-70
2023/04/03 01:30:19;;;;;;;3.35;1.98;;;18.70;95.90;;;;;;5067899;28;20360;-69
2023/04/03 01:32:45;;;;;;;1.95;1.65;;;18.70;95.90;;;;;;5068291;28;20058;-69
2023/04/03 01:35:11;;;;;;;4.93;1.90;;;18.70;95.90;;;;;;5066019;28;20033;-70
2023/04/03 01:37:36;;;;;;;1.85;1.63;;;18.70;95.90;;;;;;5067696;28;20025;-70
2023/04/03 01:40:02;;;;;;;2.28;1.83;;;18.70;96.00;;;;;;5066405;28;20073;-70
2023/04/03 01:42:29;;;;;;;4.82;2.03;;;18.70;95.90;;;;;;5063888;28;20593;-68
2023/04/03 01:44:54;;;;;;;3.17;1.73;;;18.70;95.90;;;;;;5063966;28;20032;-67
2023/04/03 01:47:20;;;;;;;2.13;1.73;;;18.70;95.90;;;;;;5062046;28;20029;-68
2023/04/03 01:49:45;;;;;;;2.95;1.85;;;18.70;95.90;;;;;;5061931;28;20056;-68
2023/04/03 01:52:11;;;;;;;3.10;2.30;;;18.70;95.90;;;;;;5061964;28;20032;-68
2023/04/03 01:54:36;;;;;;;2.47;1.60;;;18.70;95.90;;;;;;5060556;28;20499;-67
2023/04/03 01:57:02;;;;;;;2.63;1.90;;;18.70;95.90;;;;;;5046852;28;20025;-70
2023/04/03 01:59:28;;;;;;;2.47;1.75;;;18.70;96.00;;;;;;5052537;28;20020;-70
2023/04/03 02:01:53;;;;;;;1.75;1.65;;;18.70;95.90;;;;;;5064423;28;20546;-70
2023/04/03 02:04:19;;;;;;;1.88;1.70;;;18.60;95.90;;;;;;5064891;28;20024;-69
2023/04/03 02:06:45;;;;;;;2.50;1.90;;;18.80;96.00;;;;;;5066050;28;20033;-70
2023/04/03 02:09:10;;;;;;;2.35;1.60;;;18.70;95.90;;;;;;5061590;28;20027;-70
2023/04/03 02:11:36;;;;;;;2.17;1.88;;;18.70;95.90;;;;;;5063364;28;20054;-69
2023/04/03 02:14:01;;;;;;;2.10;1.38;;;18.70;95.90;;;;;;5063910;28;20705;-70
2023/04/03 02:16:28;;;;;;;2.22;1.60;;;18.60;95.90;;;;;;5067470;28;20091;-69
2023/04/03 02:18:54;;;;;;;2.47;1.73;;;18.60;95.90;;;;;;5067139;28;20025;-70
2023/04/03 02:21:19;;;;;;;1.42;1.33;;;18.60;95.90;;;;;;5065710;28;20040;-70
2023/04/03 02:23:45;;;;;;;1.23;1.13;;;18.60;95.90;;;;;;5067069;28;20029;-70
2023/04/03 02:26:12;;;;;;;1.90;1.77;;;18.60;95.90;;;;;;5063233;28;20033;-70
2023/04/03 02:28:38;;;;;;;1.63;1.48;;;18.60;95.90;;;;;;5062127;28;20028;-70
2023/04/03 02:31:04;;;;;;;1.98;1.60;;;18.60;95.90;;;;;;5062185;28;20163;-70
2023/04/03 02:33:30;;;;;;;2.65;1.60;;;18.60;95.90;;;;;;5067423;28;20105;-70
2023/04/03 02:35:56;;;;;;;1.88;1.52;;;18.60;95.90;;;;;;5065511;28;20054;-70
2023/04/03 02:38:21;;;;;;;2.50;2.05;;;18.60;95.90;;;;;;5066663;28;20031;-70
2023/04/03 02:40:47;;;;;;;2.20;1.88;;;18.60;95.90;;;;;;5064866;28;20106;-70
2023/04/03 02:43:12;;;;;;;2.38;1.70;;;18.60;95.90;;;;;;5061356;28;20074;-69
2023/04/03 02:45:38;;;;;;;2.45;1.55;;;18.60;95.90;;;;;;5067135;28;20027;-70
2023/04/03 02:48:04;;;;;;;1.75;1.48;;;18.60;95.90;;;;;;5047121;28;20033;-69
2023/04/03 02:50:29;;;;;;;2.05;1.77;;;18.60;95.90;;;;;;5066376;28;20154;-70
2023/04/03 02:52:55;;;;;;;2.78;1.90;;;18.60;95.90;;;;;;5063024;28;20399;-69
2023/04/03 02:55:20;;;;;;;1.52;1.30;;;18.60;95.80;;;;;;5060764;28;20686;-70
2023/04/03 02:57:46;;;;;;;2.00;1.52;;;18.60;95.90;;;;;;5066925;28;20108;-69
2023/04/03 03:00:12;;;;;;;1.73;1.45;;;18.50;95.80;;;;;;5062468;28;20074;-69
2023/04/03 03:02:38;;;;;;;5.93;1.63;;;18.50;95.80;;;;;;5060137;28;20040;-69
2023/04/03 03:05:04;;;;;;;1.70;1.60;;;18.60;95.80;;;;;;5062371;28;20043;-69
2023/04/03 03:07:29;;;;;;;2.05;1.70;;;18.60;95.80;;;;;;5065837;28;20513;-70
2023/04/03 03:09:55;;;;;;;2.50;1.40;;;18.60;95.80;;;;;;5062235;28;20029;-70
2023/04/03 03:12:21;;;;;;;1.77;1.50;;;18.50;95.80;;;;;;5060377;28;20025;-68
2023/04/03 03:14:47;;;;;;;2.53;1.75;;;18.50;95.80;;;;;;5060733;28;20032;-69
2023/04/03 03:17:13;;;;;;;1.95;1.33;;;18.50;95.80;;;;;;5062639;28;20099;-70
2023/04/03 03:19:38;;;;;;;2.03;1.58;;;18.50;95.80;;;;;;5066402;28;20301;-70
2023/04/03 03:22:04;;;;;;;1.70;1.50;;;18.50;95.80;;;;;;5065432;28;20469;-69
2023/04/03 03:24:30;;;;;;;1.30;1.20;;;18.50;95.80;;;;;;5063804;28;20501;-69
2023/04/03 03:26:55;;;;;;;3.13;1.40;;;18.50;96.10;;;;;;5066089;28;20525;-69
2023/04/03 03:29:21;;;;;;;1.67;1.40;;;18.50;95.80;;;;;;5062036;28;20059;-69
2023/04/03 03:31:46;;;;;;;2.85;1.50;;;18.50;95.80;;;;;;5062223;28;20127;-70
2023/04/03 03:34:12;;;;;;;1.60;1.50;;;18.50;95.80;;;;;;5063210;28;20111;-69
2023/04/03 03:36:38;;;;;;;2.08;1.60;;;18.50;95.80;;;;;;5065861;28;20092;-69
2023/04/03 03:39:03;;;;;;;1.55;1.45;;;18.50;95.80;;;;;;5062171;28;20032;-69
2023/04/03 03:41:29;;;;;;;1.63;1.40;;;18.50;95.80;;;;;;5058039;28;20032;-69
2023/04/03 03:43:55;;;;;;;1.35;1.25;;;18.50;95.80;;;;;;5060282;28;20032;-69
2023/04/03 03:46:20;;;;;;;2.15;1.40;;;18.50;95.80;;;;;;5063608;28;20025;-69
2023/04/03 03:48:46;;;;;;;1.85;1.45;;;18.50;95.70;;;;;;5060190;28;20035;-69
2023/04/03 03:51:11;;;;;;;1.70;1.50;;;18.50;95.70;;;;;;5059363;28;20040;-69
2023/04/03 03:53:37;;;;;;;1.30;1.20;;;18.50;95.70;;;;;;5061543;28;20025;-69
2023/04/03 03:56:03;;;;;;;2.83;1.30;;;18.50;95.70;;;;;;5065466;28;20483;-69
2023/04/03 03:58:29;;;;;;;2.35;1.60;;;18.50;95.70;;;;;;5068306;28;20028;-70
2023/04/03 04:00:55;;;;;;;2.00;1.67;;;18.50;95.70;;;;;;5070680;28;20421;-69
2023/04/03 04:03:20;;;;;;;1.90;1.48;;;18.50;95.80;;;;;;5059444;28;20032;-69
2023/04/03 04:05:46;;;;;;;4.25;1.67;;;18.50;95.70;;;;;;5061849;28;20024;-69
2023/04/03 04:08:11;;;;;;;1.73;1.52;;;18.50;95.70;;;;;;5047608;28;20107;-69
2023/04/03 04:10:37;;;;;;;1.60;1.50;;;18.50;95.70;;;;;;5035259;28;20039;-69
2023/04/03 04:13:03;;;;;;;1.48;1.38;;;18.50;95.70;;;;;;5059647;28;20025;-69
2023/04/03 04:15:28;;;;;;;3.58;1.42;;;18.50;95.70;;;;;;5060920;28;20024;-69
2023/04/03 04:17:54;;;;;;;1.77;1.55;;;18.50;95.70;;;;;;5061250;28;20062;-69
2023/04/03 04:20:20;;;;;;;1.38;1.20;;;18.50;95.70;;;;;;5064856;28;20124;-69
2023/04/03 04:22:45;;;;;;;3.20;1.88;;;18.50;95.70;;;;;;5065108;28;20054;-69
2023/04/03 04:25:11;;;;;;;1.70;1.38;;;18.40;95.60;;;;;;5058923;28;20039;-69
2023/04/03 04:27:37;;;;;;;4.50;1.65;;;18.40;95.50;;;;;;5059050;28;20059;-69
2023/04/03 04:30:03;;;;;;;4.63;1.60;;;18.40;95.50;;;;;;5061093;28;20028;-69
2023/04/03 04:32:28;;;;;;;1.83;1.50;;;18.40;95.40;;;;;;5064650;28;20548;-69
2023/04/03 04:34:54;;;;;;;2.05;1.40;;;18.40;95.40;;;;;;5065231;28;20029;-70
2023/04/03 04:37:20;;;;;;;1.95;1.60;;;18.40;95.30;;;;;;5059251;28;20024;-70
2023/04/03 04:39:45;;;;;;;1.83;1.60;;;18.40;95.20;;;;;;5060043;28;20016;-70
2023/04/03 04:42:12;;;;;;;2.00;1.40;;;18.40;95.20;;;;;;5061980;28;20072;-69
2023/04/03 04:44:38;;;;;;;2.40;1.98;;;18.40;95.20;;;;;;5065221;28;20827;-69
2023/04/03 04:47:04;;;;;;;2.10;1.58;;;18.40;95.20;;;;;;5062011;28;20028;-69
2023/04/03 04:49:30;;;;;;;2.78;1.70;;;18.40;95.20;;;;;;5064728;28;20159;-69
2023/04/03 04:51:55;;;;;;;2.03;1.65;;;18.40;95.10;;;;;;5064622;28;20039;-69
2023/04/03 04:54:21;;;;;;;1.90;1.67;;;18.40;95.10;;;;;;5060726;28;20091;-69
2023/04/03 04:56:46;;;;;;;1.88;1.67;;;18.40;95.10;;;;;;5062174;28;20055;-69
2023/04/03 04:59:12;;;;;;;1.63;1.52;;;18.40;95.10;;;;;;5059644;28;20107;-69
2023/04/03 05:01:37;;;;;;;3.20;2.00;;;18.40;95.00;;;;;;5058421;28;20123;-70
2023/04/03 05:04:03;;;;;;;2.05;1.85;;;18.50;95.00;;;;;;5060972;28;20059;-69
2023/04/03 05:06:30;;;;;;;1.60;1.48;;;18.40;95.00;;;;;;5064590;28;20013;-70
2023/04/03 05:08:55;;;;;;;4.03;2.22;;;18.40;95.00;;;;;;5064141;28;20017;-69
2023/04/03 05:11:21;;;;;;;2.45;1.92;;;18.40;95.00;;;;;;5061064;28;20033;-69
2023/04/03 05:13:46;;;;;;;3.55;1.88;;;18.40;94.90;;;;;;5062636;28;20028;-70
2023/04/03 05:16:12;;;;;;;2.28;2.00;;;18.40;95.00;;;;;;5058304;28;20082;-70
2023/04/03 05:18:37;;;;;;;2.03;1.83;;;18.40;94.90;;;;;;5058659;28;20483;-69
2023/04/03 05:21:03;;;;;;;2.80;2.22;;;18.40;95.00;;;;;;5058610;28;20210;-70
2023/04/03 05:23:29;;;;;;;2.72;1.90;;;18.40;94.90;;;;;;5060713;28;20482;-70
2023/04/03 05:25:54;;;;;;;5.47;1.73;;;18.40;94.90;;;;;;5061034;28;20127;-70
2023/04/03 05:28:19;;;;;;;3.45;2.13;;;18.40;94.90;;;;;;5046232;28;20099;-69
2023/04/03 05:30:45;;;;;;;2.05;1.67;;;18.40;94.90;;;;;;5064507;28;20131;-70
2023/04/03 05:33:10;;;;;;;4.43;2.28;;;18.40;94.90;;;;;;5061807;28;20023;-70
2023/04/03 05:35:40;;;;;;;3.15;2.00;;;18.40;94.90;;;;;;5062884;28;20554;-70
2023/04/03 05:38:05;;;;;;;2.50;1.95;;;18.40;94.90;;;;;;5059282;28;20474;-70
2023/04/03 05:40:31;;;;;;;5.38;2.00;;;18.40;94.90;;;;;;5057767;28;20036;-70
